createdAt,value
2023-05-16T00:00:54.437Z,101236.06
2023-05-16T00:03:21.500Z,101264.77
2023-05-16T00:05:48.716Z,101292.59
2023-05-16T00:08:15.864Z,101318.18
2023-05-16T00:10:44.038Z,101336.86
2023-05-16T00:13:11.096Z,101346.55
2023-05-16T00:15:38.841Z,101350.84
2023-05-16T00:18:05.954Z,101351.31
2023-05-16T00:20:32.943Z,101344.16
2023-05-16T00:23:02.753Z,101338.39
2023-05-16T00:25:29.800Z,101324.88
2023-05-16T00:27:57.056Z,101308.17
2023-05-16T00:30:24.261Z,101294.24
2023-05-16T00:32:52.156Z,101286.90
2023-05-16T00:35:19.210Z,101270.93
2023-05-16T00:37:46.567Z,101235.26
2023-05-16T00:40:13.504Z,101192.86
2023-05-16T00:42:40.379Z,101158.29
2023-05-16T00:45:08.258Z,101140.62
2023-05-16T00:47:36.297Z,101121.23
2023-05-16T00:50:04.259Z,101108.30
2023-05-16T00:52:33.182Z,101098.31
2023-05-16T00:55:00.521Z,101087.15
2023-05-16T00:57:27.478Z,101073.73
2023-05-16T00:59:54.325Z,101064.25
2023-05-16T01:02:21.737Z,101062.58
2023-05-16T01:04:49.103Z,101055.04
2023-05-16T01:07:17.170Z,101046.56
2023-05-16T01:09:44.218Z,101049.55
2023-05-16T01:12:32.820Z,101049.38
2023-05-16T01:15:23.087Z,101054.06
2023-05-16T01:17:55.262Z,101054.46
2023-05-16T01:20:48.479Z,101059.67
2023-05-16T01:23:33.966Z,101064.98
2023-05-16T01:26:28.286Z,101073.05
2023-05-16T01:28:55.878Z,101102.03
2023-05-16T01:31:22.977Z,101131.16
2023-05-16T01:33:51.541Z,101164.42
2023-05-16T01:36:39.990Z,101189.71
2023-05-16T01:39:25.463Z,101221.06
2023-05-16T01:41:56.285Z,101241.49
2023-05-16T01:44:30.275Z,101256.23
2023-05-16T01:46:59.384Z,101288.84
2023-05-16T01:50:08.650Z,101311.98
2023-05-16T01:52:50.777Z,101337.36
2023-05-16T01:55:24.272Z,101350.27
2023-05-16T01:57:51.383Z,101346.98
2023-05-16T02:00:18.949Z,101344.21
2023-05-16T02:02:46.017Z,101347.81
2023-05-16T02:05:13.136Z,101357.14
2023-05-16T02:07:40.085Z,101361.27
2023-05-16T02:10:08.153Z,101371.64
2023-05-16T02:12:35.506Z,101375.43
2023-05-16T02:15:02.673Z,101375.45
2023-05-16T02:17:29.656Z,101371.98
2023-05-16T02:19:57.769Z,101369.93
2023-05-16T02:22:24.714Z,101367.87
2023-05-16T02:24:51.661Z,101365.98
2023-05-16T02:27:19.115Z,101366.86
2023-05-16T02:29:46.164Z,101369.84
2023-05-16T02:32:13.109Z,101372.80
2023-05-16T02:34:40.052Z,101371.10
2023-05-16T02:37:08.427Z,101368.55
2023-05-16T02:39:35.484Z,101368.05
2023-05-16T02:42:02.752Z,101369.77
2023-05-16T02:44:29.774Z,101375.48
2023-05-16T02:46:59.382Z,101369.94
2023-05-16T02:49:26.631Z,101371.49
2023-05-16T02:51:54.507Z,101368.04
2023-05-16T02:54:21.853Z,101368.18
2023-05-16T02:56:49.959Z,101370.06
2023-05-16T02:59:19.743Z,101373.30
2023-05-16T03:01:46.855Z,101376.20
2023-05-16T03:04:14.097Z,101375.64
2023-05-16T03:06:42.102Z,101382.67
2023-05-16T03:09:09.048Z,101386.27
2023-05-16T03:11:37.068Z,101387.23
2023-05-16T03:14:04.176Z,101390.13
2023-05-16T03:16:31.334Z,101388.66
2023-05-16T03:18:58.714Z,101394.11
2023-05-16T03:21:27.505Z,101395.45
2023-05-16T03:23:55.247Z,101397.09
2023-05-16T03:26:22.864Z,101395.77
2023-05-16T03:28:51.366Z,101395.83
2023-05-16T03:31:18.699Z,101401.73
2023-05-16T03:33:45.867Z,101404.64
2023-05-16T03:36:12.801Z,101407.19
2023-05-16T03:38:39.797Z,101400.73
2023-05-16T03:41:06.800Z,101387.84
2023-05-16T03:43:33.847Z,101361.94
2023-05-16T03:46:04.457Z,101323.33
2023-05-16T03:48:31.640Z,101269.88
2023-05-16T03:50:58.682Z,101204.78
2023-05-16T03:53:25.719Z,101103.15
2023-05-16T03:55:52.581Z,100973.52
2023-05-16T03:58:19.507Z,100845.19
2023-05-16T04:00:47.002Z,100735.87
2023-05-16T04:03:14.119Z,100659.56
2023-05-16T04:05:41.392Z,100634.54
2023-05-16T04:08:08.411Z,100646.17
2023-05-16T04:10:36.070Z,100672.77
2023-05-16T04:13:03.009Z,100694.73
2023-05-16T04:15:30.071Z,100715.13
2023-05-16T04:17:57.191Z,100739.35
2023-05-16T04:20:24.257Z,100761.62
2023-05-16T04:22:52.122Z,100792.73
2023-05-16T04:25:19.165Z,100821.10
2023-05-16T04:27:46.115Z,100841.06
2023-05-16T04:30:14.743Z,100871.55
2023-05-16T04:32:41.761Z,100901.03
2023-05-16T04:35:09.528Z,100922.31
2023-05-16T04:37:37.064Z,100937.14
2023-05-16T04:40:04.625Z,100948.58
2023-05-16T04:42:32.193Z,100951.45
2023-05-16T04:44:59.149Z,100973.33
2023-05-16T04:47:26.137Z,100987.30
2023-05-16T04:49:53.321Z,100994.33
2023-05-16T04:52:20.577Z,100985.79
2023-05-16T04:54:47.522Z,100980.73
2023-05-16T04:57:15.104Z,100985.58
2023-05-16T04:59:42.022Z,100992.07
2023-05-16T05:02:10.172Z,100983.05
2023-05-16T05:04:38.398Z,100979.89
2023-05-16T05:07:05.422Z,100942.91
2023-05-16T05:09:32.285Z,100927.71
2023-05-16T05:11:59.311Z,100899.52
2023-05-16T05:14:26.456Z,100866.34
2023-05-16T05:16:53.406Z,100863.70
2023-05-16T05:19:21.098Z,100843.67
2023-05-16T05:21:48.517Z,100853.54
2023-05-16T05:24:15.473Z,100862.34
2023-05-16T05:26:42.710Z,100856.62
2023-05-16T05:29:09.960Z,100830.28
2023-05-16T05:31:37.158Z,100835.14
2023-05-16T05:34:04.282Z,100785.70
2023-05-16T05:36:31.818Z,100807.55
2023-05-16T05:38:58.713Z,100816.54
2023-05-16T05:41:26.933Z,100818.08
2023-05-16T05:43:54.182Z,100801.35
2023-05-16T05:46:21.371Z,100810.30
2023-05-16T05:48:48.444Z,100759.94
2023-05-16T05:51:15.732Z,100857.11
2023-05-16T05:53:42.928Z,100868.79
2023-05-16T05:56:09.941Z,100834.99
2023-05-16T05:58:36.878Z,100800.89
2023-05-16T06:01:04.133Z,100831.02
2023-05-16T06:03:31.204Z,100806.63
2023-05-16T06:05:58.674Z,100848.89
2023-05-16T06:08:25.783Z,100784.63
2023-05-16T06:10:52.935Z,100746.95
2023-05-16T06:13:19.875Z,100917.76
2023-05-16T06:15:53.779Z,100864.73
2023-05-16T06:18:21.366Z,100799.83
2023-05-16T06:20:48.280Z,100768.91
2023-05-16T06:23:15.229Z,100711.77
2023-05-16T06:25:42.114Z,100640.73
2023-05-16T06:28:09.010Z,100633.20
2023-05-16T06:30:36.060Z,100543.78
2023-05-16T06:33:03.096Z,100629.35
2023-05-16T06:35:30.258Z,100510.71
2023-05-16T06:37:57.404Z,100411.73
2023-05-16T06:40:24.962Z,100252.48
2023-05-16T06:42:51.901Z,100236.19
2023-05-16T06:45:19.374Z,100150.59
2023-05-16T06:47:46.595Z,100153.38
2023-05-16T06:50:13.978Z,100114.71
2023-05-16T06:52:42.187Z,100144.41
2023-05-16T06:55:09.912Z,100117.52
2023-05-16T06:57:36.852Z,100204.73
2023-05-16T07:00:04.819Z,100212.69
2023-05-16T07:04:48.169Z,100256.78
2023-05-16T07:07:15.717Z,100278.13
2023-05-16T07:09:43.132Z,100203.67
2023-05-16T07:12:10.305Z,100095.98
2023-05-16T07:14:37.816Z,100047.80
2023-05-16T07:17:04.760Z,100116.19
2023-05-16T07:19:32.653Z,100081.55
2023-05-16T07:21:59.944Z,100061.02
2023-05-16T07:24:27.086Z,100099.84
2023-05-16T07:26:55.213Z,100057.16
2023-05-16T07:29:22.736Z,100112.11
2023-05-16T07:31:49.848Z,100027.31
2023-05-16T07:34:17.427Z,100047.58
2023-05-16T07:36:44.704Z,100080.50
2023-05-16T07:39:11.930Z,100012.63
2023-05-16T07:41:38.977Z,99946.11
2023-05-16T07:44:05.917Z,99947.55
2023-05-16T07:46:33.408Z,99755.64
2023-05-16T07:49:00.832Z,99758.32
2023-05-16T07:51:28.261Z,99649.26
2023-05-16T07:53:55.233Z,99672.56
2023-05-16T07:56:23.302Z,99617.64
2023-05-16T07:58:50.347Z,99668.42
2023-05-16T08:14:08.263Z,99138.05
2023-05-16T08:16:35.655Z,99237.09
2023-05-16T08:19:03.040Z,99248.56
2023-05-16T08:21:31.957Z,99239.73
2023-05-16T08:23:59.113Z,99201.23
2023-05-16T08:26:26.779Z,99091.80
2023-05-16T08:28:53.715Z,99223.50
2023-05-16T08:31:21.430Z,99357.38
2023-05-16T08:33:48.623Z,99264.35
2023-05-16T08:36:16.408Z,99257.92
2023-05-16T08:38:43.364Z,99296.11
2023-05-16T08:41:10.963Z,99260.52
2023-05-16T08:43:38.245Z,99268.53
2023-05-16T08:46:07.989Z,99239.24
2023-05-16T08:48:35.118Z,99333.59
2023-05-16T08:51:02.977Z,99429.42
2023-05-16T08:53:33.752Z,99430.64
2023-05-16T08:56:00.971Z,99372.06
2023-05-16T08:58:29.847Z,99407.30
2023-05-16T09:00:56.781Z,99293.77
2023-05-16T09:03:25.817Z,99292.52
2023-05-16T09:05:53.040Z,99348.98
2023-05-16T09:08:20.395Z,99294.79
2023-05-16T09:10:47.553Z,99306.48
2023-05-16T09:13:15.330Z,99234.61
2023-05-16T09:15:42.456Z,99207.80
2023-05-16T09:18:12.868Z,99203.58
2023-05-16T09:20:49.889Z,99114.87
2023-05-16T09:23:17.132Z,99191.83
2023-05-16T09:25:44.363Z,99186.83
2023-05-16T09:28:11.769Z,99149.10
2023-05-16T09:30:39.785Z,99088.41
2023-05-16T09:33:07.276Z,99126.73
2023-05-16T09:35:45.001Z,99165.92
2023-05-16T09:38:17.234Z,99068.33
2023-05-16T09:40:45.444Z,99041.50
2023-05-16T09:43:16.780Z,99079.02
2023-05-16T09:45:48.517Z,99023.20
2023-05-16T09:48:16.173Z,98998.40
2023-05-16T09:50:52.780Z,99075.27
2023-05-16T09:53:30.722Z,99190.99
2023-05-16T09:56:05.422Z,99231.09
2023-05-16T09:58:33.374Z,99250.75
2023-05-16T10:01:00.871Z,99199.35
2023-05-16T10:03:28.646Z,99095.54
2023-05-16T10:05:56.194Z,99128.76
2023-05-16T10:08:26.731Z,99126.40
2023-05-16T10:10:57.550Z,99158.69
2023-05-16T10:13:29.218Z,99233.27
2023-05-16T10:15:57.653Z,99191.92
2023-05-16T10:18:31.823Z,99189.30
2023-05-16T10:21:08.940Z,99114.86
2023-05-16T10:23:38.596Z,99130.15
2023-05-16T10:26:06.459Z,99215.73
2023-05-16T10:28:33.440Z,99292.41
2023-05-16T10:31:00.758Z,99186.77
2023-05-16T10:33:27.827Z,99211.41
2023-05-16T10:35:55.869Z,99218.20
2023-05-16T10:38:24.594Z,99289.66
2023-05-16T10:40:51.711Z,99252.38
2023-05-16T10:43:26.840Z,99217.25
2023-05-16T10:45:58.293Z,99314.35
2023-05-16T10:48:43.593Z,99345.88
2023-05-16T10:51:22.892Z,99394.09
2023-05-16T10:53:54.259Z,99448.57
2023-05-16T10:56:26.557Z,99510.48
2023-05-16T10:58:54.258Z,99504.29
2023-05-16T11:01:29.675Z,99513.73
2023-05-16T11:04:00.579Z,99518.13
2023-05-16T11:06:31.491Z,99507.90
2023-05-16T11:09:20.148Z,99537.49
2023-05-16T11:11:49.382Z,99666.90
2023-05-16T11:14:29.529Z,99708.29
2023-05-16T11:17:09.341Z,99714.07
2023-05-16T11:19:40.850Z,99798.98
2023-05-16T11:22:14.016Z,99847.11
2023-05-16T11:24:46.458Z,99963.08
2023-05-16T11:27:13.673Z,99957.39
2023-05-16T11:29:41.287Z,99974.52
2023-05-16T11:32:08.441Z,100031.89
2023-05-16T11:34:37.923Z,100071.14
2023-05-16T11:37:05.698Z,100191.86
2023-05-16T11:39:32.889Z,100275.38
2023-05-16T11:42:00.392Z,100210.55
2023-05-16T11:44:27.444Z,100251.54
2023-05-16T11:46:54.985Z,100260.89
2023-05-16T11:49:21.942Z,100263.47
2023-05-16T11:51:49.946Z,100308.24
2023-05-16T11:54:17.168Z,100341.91
2023-05-16T11:56:44.218Z,100248.55
2023-05-16T11:59:11.674Z,100256.23
2023-05-16T12:01:39.863Z,100285.45
2023-05-16T12:04:12.592Z,100313.77
2023-05-16T12:06:40.179Z,100313.31
2023-05-16T12:09:15.010Z,100322.92
2023-05-16T12:11:44.423Z,100377.56
2023-05-16T12:14:13.040Z,100264.31
2023-05-16T12:16:44.685Z,100249.17
2023-05-16T12:19:12.263Z,100227.51
2023-05-16T12:21:39.982Z,100252.03
2023-05-16T12:24:10.394Z,100314.35
2023-05-16T12:26:39.834Z,100342.27
2023-05-16T12:29:07.188Z,100357.88
2023-05-16T12:31:38.745Z,100339.98
2023-05-16T12:34:06.059Z,100336.30
2023-05-16T12:36:35.215Z,100445.89
2023-05-16T12:39:04.148Z,100555.98
2023-05-16T12:41:31.713Z,100564.23
2023-05-16T12:44:17.366Z,100576.48
2023-05-16T12:46:46.149Z,100589.90
2023-05-16T12:49:13.940Z,100626.44
2023-05-16T12:51:41.423Z,100644.27
2023-05-16T12:54:10.654Z,100767.92
2023-05-16T12:56:41.255Z,100739.67
2023-05-16T12:59:08.691Z,100712.08
2023-05-16T13:01:36.574Z,100592.38
2023-05-16T13:04:05.223Z,100656.13
2023-05-16T13:06:44.924Z,100732.14
2023-05-16T13:09:19.804Z,100783.80
2023-05-16T13:11:46.951Z,101052.17
2023-05-16T13:14:14.131Z,101229.92
2023-05-16T13:16:41.363Z,101313.95
2023-05-16T13:19:08.856Z,101357.52
2023-05-16T13:21:36.279Z,101240.78
2023-05-16T13:24:03.619Z,101317.39
2023-05-16T13:26:30.530Z,101273.23
2023-05-16T13:28:57.565Z,101352.10
2023-05-16T13:31:24.831Z,101340.45
2023-05-16T13:33:52.394Z,101354.07
2023-05-16T13:36:19.384Z,101300.92
2023-05-16T13:38:46.508Z,101250.95
2023-05-16T13:41:14.379Z,101185.25
2023-05-16T13:43:41.529Z,101053.84
2023-05-16T13:46:08.636Z,100988.10
2023-05-16T13:48:35.925Z,100980.65
2023-05-16T13:51:02.971Z,101002.92
2023-05-16T13:53:30.018Z,101017.00
2023-05-16T13:55:57.164Z,100985.58
2023-05-16T13:58:24.141Z,101002.12
2023-05-16T14:00:51.552Z,101019.59
2023-05-16T14:03:19.158Z,100990.20
2023-05-16T14:05:46.486Z,100991.30
2023-05-16T14:08:14.648Z,101061.89
2023-05-16T14:10:41.702Z,101107.91
2023-05-16T14:13:08.739Z,101300.05
2023-05-16T14:15:35.997Z,101423.29
2023-05-16T14:18:05.115Z,101382.53
2023-05-16T14:20:32.235Z,101349.33
2023-05-16T14:22:59.600Z,101287.71
2023-05-16T14:25:26.926Z,101336.41
2023-05-16T14:27:54.405Z,101383.29
2023-05-16T14:30:21.863Z,101435.48
2023-05-16T14:32:48.942Z,101448.92
2023-05-16T14:35:16.675Z,101449.65
2023-05-16T14:37:43.716Z,101496.20
2023-05-16T14:40:11.378Z,101533.21
2023-05-16T14:42:38.660Z,101609.79
2023-05-16T14:45:06.904Z,101701.61
2023-05-16T14:47:34.052Z,101752.50
2023-05-16T14:50:01.530Z,101650.11
2023-05-16T14:52:28.690Z,101342.95
2023-05-16T14:54:55.805Z,101152.04
2023-05-16T14:57:23.397Z,101053.42
2023-05-16T14:59:51.236Z,101018.41
2023-05-16T15:02:19.406Z,101005.98
2023-05-16T15:04:46.398Z,101000.30
2023-05-16T15:07:14.012Z,100997.18
2023-05-16T15:09:41.262Z,101000.40
2023-05-16T15:12:09.437Z,101008.03
2023-05-16T15:14:36.887Z,101002.79
2023-05-16T15:17:06.678Z,100987.92
2023-05-16T15:19:35.959Z,100969.55
2023-05-16T15:22:07.969Z,100962.48
2023-05-16T15:24:35.287Z,100956.23
2023-05-16T15:27:05.085Z,100958.38
2023-05-16T15:29:32.791Z,100959.59
2023-05-16T15:32:00.068Z,100957.20
2023-05-16T15:34:28.828Z,100954.81
2023-05-16T15:36:56.078Z,100961.11
2023-05-16T15:39:26.095Z,100949.52
2023-05-16T15:42:09.093Z,100933.52
2023-05-16T15:44:38.578Z,100920.26
2023-05-16T15:47:06.377Z,100919.14
2023-05-16T15:49:33.429Z,100917.96
2023-05-16T15:52:01.609Z,100900.30
2023-05-16T15:54:29.270Z,100894.09
2023-05-16T15:56:56.668Z,100907.83
2023-05-16T15:59:23.971Z,100918.63
2023-05-16T16:01:51.075Z,100917.97
2023-05-16T16:04:20.429Z,100923.14
2023-05-16T16:06:48.796Z,100924.66
2023-05-16T16:09:16.274Z,100920.99
2023-05-16T16:11:43.508Z,100917.02
2023-05-16T16:14:11.309Z,100918.91
2023-05-16T16:16:40.798Z,100921.55
2023-05-16T16:19:08.574Z,100920.25
2023-05-16T16:21:36.114Z,100911.67
2023-05-16T16:24:03.756Z,100892.31
2023-05-16T16:26:32.014Z,100883.20
2023-05-16T16:29:00.005Z,100876.00
2023-05-16T16:31:27.155Z,100863.37
2023-05-16T16:33:54.840Z,100858.23
2023-05-16T16:36:21.994Z,100852.39
2023-05-16T16:38:49.216Z,100837.60
2023-05-16T16:41:16.867Z,100782.38
2023-05-16T16:43:43.919Z,100723.61
2023-05-16T16:46:11.198Z,100709.81
2023-05-16T16:48:38.518Z,100717.69
2023-05-16T16:51:05.571Z,100718.39
2023-05-16T16:53:32.750Z,100721.77
2023-05-16T16:56:00.289Z,100692.46
2023-05-16T16:58:27.448Z,100675.82
2023-05-16T17:00:54.627Z,100679.20
2023-05-16T17:03:21.996Z,100684.63
2023-05-16T17:05:49.114Z,100678.17
2023-05-16T17:08:16.229Z,100663.59
2023-05-16T17:10:43.278Z,100652.52
2023-05-16T17:13:12.332Z,100641.96
2023-05-16T17:15:39.517Z,100631.35
2023-05-16T17:18:09.463Z,100617.66
2023-05-16T17:20:36.683Z,100611.44
2023-05-16T17:23:03.837Z,100598.96
2023-05-16T17:25:31.210Z,100594.86
2023-05-16T17:27:58.448Z,100594.23
2023-05-16T17:30:26.500Z,100598.02
2023-05-16T17:32:54.313Z,100603.96
2023-05-16T17:35:21.517Z,100619.95
2023-05-16T17:37:50.010Z,100637.50
2023-05-16T17:40:18.136Z,100659.45
2023-05-16T17:42:45.497Z,100675.15
2023-05-16T17:45:19.538Z,100691.77
2023-05-16T17:47:46.608Z,100706.59
2023-05-16T17:50:13.771Z,100727.27
2023-05-16T17:52:41.081Z,100745.63
2023-05-16T17:55:09.432Z,100760.84
2023-05-16T17:57:36.516Z,100770.89
2023-05-16T18:00:05.737Z,100783.38
2023-05-16T18:02:32.931Z,100789.18
2023-05-16T18:05:00.116Z,100797.63
2023-05-16T18:07:27.494Z,100800.38
2023-05-16T18:09:54.698Z,100800.52
2023-05-16T18:12:21.979Z,100811.08
2023-05-16T18:14:49.212Z,100820.94
2023-05-16T18:17:16.671Z,100827.14
2023-05-16T18:19:43.851Z,100829.20
2023-05-16T18:22:12.563Z,100825.53
2023-05-16T18:24:40.182Z,100829.66
2023-05-16T18:27:07.314Z,100833.75
2023-05-16T18:29:34.497Z,100839.09
2023-05-16T18:32:04.987Z,100849.10
2023-05-16T18:34:32.241Z,100846.58
2023-05-16T18:36:59.325Z,100861.27
2023-05-16T18:39:26.436Z,100878.11
2023-05-16T18:41:53.586Z,100892.61
2023-05-16T18:44:20.840Z,100913.22
2023-05-16T18:46:47.989Z,100930.52
2023-05-16T18:49:15.139Z,100940.18
2023-05-16T18:51:42.289Z,100950.38
2023-05-16T18:54:10.553Z,100962.30
2023-05-16T18:56:37.630Z,100991.77
2023-05-16T18:59:04.695Z,101029.93
2023-05-16T19:01:31.809Z,101065.66
2023-05-16T19:03:59.321Z,101089.04
2023-05-16T19:06:27.026Z,101104.05
2023-05-16T19:08:54.070Z,101126.04
2023-05-16T19:11:22.545Z,101144.69
2023-05-16T19:13:49.695Z,101158.83
2023-05-16T19:16:16.845Z,101175.09
2023-05-16T19:18:43.949Z,101198.66
2023-05-16T19:22:38.085Z,101227.83
2023-05-16T19:25:06.730Z,101245.29
2023-05-16T19:27:33.807Z,101262.86
2023-05-16T19:30:00.872Z,101273.68
2023-05-16T19:32:28.782Z,101281.63
2023-05-16T19:34:55.995Z,101287.81
2023-05-16T19:37:24.049Z,101285.77
2023-05-16T19:39:51.113Z,101290.17
2023-05-16T19:42:18.348Z,101282.58
2023-05-16T19:44:45.705Z,101270.80
2023-05-16T19:47:13.057Z,101262.63
2023-05-16T19:49:40.025Z,101270.95
2023-05-16T19:52:13.496Z,101287.48
2023-05-16T19:54:41.670Z,101304.68
2023-05-16T19:57:09.429Z,101317.02
2023-05-16T19:59:36.687Z,101317.55
2023-05-16T20:02:04.635Z,101319.32
2023-05-16T20:04:31.826Z,101310.10
2023-05-16T20:06:58.882Z,101306.80
2023-05-16T20:09:28.157Z,101292.39
2023-05-16T20:11:57.567Z,101274.52
2023-05-16T20:14:24.797Z,101249.55
2023-05-16T20:16:53.078Z,101229.09
2023-05-16T20:19:20.165Z,101208.30
2023-05-16T20:21:47.460Z,101188.04
2023-05-16T20:24:15.546Z,101177.30
2023-05-16T20:26:42.589Z,101176.84
2023-05-16T20:29:10.055Z,101161.23
2023-05-16T20:31:37.225Z,101135.64
2023-05-16T20:34:04.212Z,101110.80
2023-05-16T20:36:31.439Z,101087.84
2023-05-16T20:38:58.353Z,101081.29
2023-05-16T20:41:26.406Z,101058.52
2023-05-16T20:43:53.574Z,101031.94
2023-05-16T20:46:20.915Z,100991.61
2023-05-16T20:48:48.001Z,100955.59
2023-05-16T20:51:15.206Z,100941.70
2023-05-16T20:53:42.364Z,100926.08
2023-05-16T20:56:09.404Z,100903.30
2023-05-16T20:58:36.355Z,100872.48
2023-05-16T21:01:04.010Z,100847.02
2023-05-16T21:03:31.117Z,100817.11
2023-05-16T21:05:58.223Z,100803.90
2023-05-16T21:08:25.349Z,100785.16
2023-05-16T21:10:52.398Z,100753.34
2023-05-16T21:13:19.649Z,100728.76
2023-05-16T21:15:46.800Z,100717.77
2023-05-16T21:18:13.938Z,100711.85
2023-05-16T21:20:41.101Z,100716.79
2023-05-16T21:23:07.995Z,100728.30
2023-05-16T21:25:36.168Z,100732.55
2023-05-16T21:28:03.885Z,100747.40
2023-05-16T21:30:30.926Z,100759.98
2023-05-16T21:32:58.168Z,100762.11
2023-05-16T21:35:25.482Z,100753.30
2023-05-16T21:37:52.687Z,100744.13
2023-05-16T21:40:25.112Z,100727.46
2023-05-16T21:42:52.966Z,100705.38
2023-05-16T21:45:20.176Z,100685.94
2023-05-16T21:47:47.376Z,100671.30
2023-05-16T21:50:14.572Z,100670.11
2023-05-16T21:52:41.724Z,100667.20
2023-05-16T21:55:09.280Z,100670.44
2023-05-16T21:57:36.538Z,100669.63
2023-05-16T22:00:06.957Z,100670.42
2023-05-16T22:02:36.194Z,100671.23
2023-05-16T22:05:03.845Z,100676.54
2023-05-16T22:07:32.042Z,100681.39
2023-05-16T22:09:59.351Z,100686.61
2023-05-16T22:12:26.996Z,100685.69
2023-05-16T22:14:54.252Z,100684.64
2023-05-16T22:17:21.807Z,100684.36
2023-05-16T22:19:49.571Z,100685.84
2023-05-16T22:22:17.118Z,100682.75
2023-05-16T22:24:44.185Z,100682.66
2023-05-16T22:27:11.568Z,100685.16
2023-05-16T22:29:38.679Z,100689.05
2023-05-16T22:32:09.688Z,100693.80
2023-05-16T22:34:39.960Z,100705.90
2023-05-16T22:37:10.605Z,100718.21
2023-05-16T22:39:37.821Z,100729.52
2023-05-16T22:42:05.280Z,100737.95
2023-05-16T22:44:32.427Z,100749.13
2023-05-16T22:46:59.588Z,100757.38
2023-05-16T22:49:26.627Z,100765.64
2023-05-16T22:51:53.782Z,100771.49
2023-05-16T22:54:21.228Z,100771.25
2023-05-16T22:56:48.284Z,100767.69
2023-05-16T22:59:15.446Z,100760.93
2023-05-16T23:01:42.392Z,100756.45
2023-05-16T23:04:09.693Z,100745.73
2023-05-16T23:06:36.971Z,100731.89
2023-05-16T23:09:04.959Z,100719.94
2023-05-16T23:11:32.702Z,100715.45
2023-05-16T23:13:59.758Z,100717.09
2023-05-16T23:16:26.902Z,100714.90
2023-05-16T23:18:53.991Z,100716.72
2023-05-16T23:21:21.213Z,100725.77
2023-05-16T23:23:48.250Z,100735.52
2023-05-16T23:26:15.291Z,100731.41
2023-05-16T23:28:43.668Z,100719.43
2023-05-16T23:31:10.638Z,100711.80
2023-05-16T23:33:37.789Z,100707.71
2023-05-16T23:36:05.419Z,100705.00
2023-05-16T23:38:32.471Z,100703.34
2023-05-16T23:40:59.619Z,100710.00
2023-05-16T23:43:26.682Z,100707.29
2023-05-16T23:45:53.638Z,100700.21
2023-05-16T23:48:20.607Z,100698.86
2023-05-16T23:50:47.706Z,100697.16
2023-05-16T23:53:15.160Z,100690.77
2023-05-16T23:55:42.088Z,100696.20
2023-05-16T23:58:09.252Z,100695.91
